sensor_id;sensor_type;location;lat;lon;timestamp;P1;durP1;ratioP1;P2;durP2;ratioP2
58621;SDS011;44389;51.578;5.456;2022-11-21T00:00:10;33.35;;;11.05;;
58621;SDS011;44389;51.578;5.456;2022-11-21T00:02:36;27.17;;;9.95;;
58621;SDS011;44389;51.578;5.456;2022-11-21T00:05:01;32.80;;;10.05;;
58621;SDS011;44389;51.578;5.456;2022-11-21T00:07:26;37.30;;;10.88;;
58621;SDS011;44389;51.578;5.456;2022-11-21T00:09:51;33.67;;;10.52;;
58621;SDS011;44389;51.578;5.456;2022-11-21T00:12:17;41.97;;;11.10;;
58621;SDS011;44389;51.578;5.456;2022-11-21T00:14:42;35.67;;;12.27;;
58621;SDS011;44389;51.578;5.456;2022-11-21T00:17:08;40.17;;;12.82;;
58621;SDS011;44389;51.578;5.456;2022-11-21T00:19:33;42.55;;;11.90;;
58621;SDS011;44389;51.578;5.456;2022-11-21T00:21:59;42.58;;;13.55;;
58621;SDS011;44389;51.578;5.456;2022-11-21T00:24:24;41.03;;;12.48;;
58621;SDS011;44389;51.578;5.456;2022-11-21T00:26:49;43.45;;;13.20;;
58621;SDS011;44389;51.578;5.456;2022-11-21T00:29:15;44.95;;;13.68;;
58621;SDS011;44389;51.578;5.456;2022-11-21T00:31:40;44.80;;;13.85;;
58621;SDS011;44389;51.578;5.456;2022-11-21T00:34:05;54.40;;;14.10;;
58621;SDS011;44389;51.578;5.456;2022-11-21T00:36:30;39.70;;;14.73;;
58621;SDS011;44389;51.578;5.456;2022-11-21T00:38:56;55.65;;;13.88;;
58621;SDS011;44389;51.578;5.456;2022-11-21T00:41:21;50.42;;;13.30;;
58621;SDS011;44389;51.578;5.456;2022-11-21T00:43:46;47.58;;;13.80;;
58621;SDS011;44389;51.578;5.456;2022-11-21T00:46:11;46.50;;;13.10;;
58621;SDS011;44389;51.578;5.456;2022-11-21T00:48:37;54.50;;;19.15;;
58621;SDS011;44389;51.578;5.456;2022-11-21T00:51:02;75.05;;;32.60;;
58621;SDS011;44389;51.578;5.456;2022-11-21T00:53:27;73.65;;;32.13;;
58621;SDS011;44389;51.578;5.456;2022-11-21T00:55:53;83.30;;;32.97;;
58621;SDS011;44389;51.578;5.456;2022-11-21T00:58:18;98.85;;;39.03;;
58621;SDS011;44389;51.578;5.456;2022-11-21T01:00:44;97.43;;;44.08;;
58621;SDS011;44389;51.578;5.456;2022-11-21T01:03:09;125.70;;;48.47;;
58621;SDS011;44389;51.578;5.456;2022-11-21T01:05:34;117.80;;;50.67;;
58621;SDS011;44389;51.578;5.456;2022-11-21T01:08:00;129.35;;;54.10;;
58621;SDS011;44389;51.578;5.456;2022-11-21T01:10:25;144.77;;;57.42;;
58621;SDS011;44389;51.578;5.456;2022-11-21T01:12:50;149.45;;;67.43;;
58621;SDS011;44389;51.578;5.456;2022-11-21T01:15:15;166.15;;;68.97;;
58621;SDS011;44389;51.578;5.456;2022-11-21T01:17:41;159.13;;;68.78;;
58621;SDS011;44389;51.578;5.456;2022-11-21T01:20:06;160.95;;;70.53;;
58621;SDS011;44389;51.578;5.456;2022-11-21T01:22:32;178.48;;;75.90;;
58621;SDS011;44389;51.578;5.456;2022-11-21T01:24:57;169.27;;;74.05;;
58621;SDS011;44389;51.578;5.456;2022-11-21T01:27:22;163.98;;;73.05;;
58621;SDS011;44389;51.578;5.456;2022-11-21T01:29:47;178.63;;;76.15;;
58621;SDS011;44389;51.578;5.456;2022-11-21T01:32:13;170.13;;;75.63;;
58621;SDS011;44389;51.578;5.456;2022-11-21T01:34:38;179.85;;;78.82;;
58621;SDS011;44389;51.578;5.456;2022-11-21T01:37:03;170.52;;;75.20;;
58621;SDS011;44389;51.578;5.456;2022-11-21T01:39:29;186.55;;;77.82;;
58621;SDS011;44389;51.578;5.456;2022-11-21T01:41:54;177.32;;;77.53;;
58621;SDS011;44389;51.578;5.456;2022-11-21T01:46:46;165.88;;;74.88;;
58621;SDS011;44389;51.578;5.456;2022-11-21T01:49:15;190.98;;;79.25;;
58621;SDS011;44389;51.578;5.456;2022-11-21T01:51:48;195.45;;;82.00;;
58621;SDS011;44389;51.578;5.456;2022-11-21T01:54:45;182.55;;;76.78;;
58621;SDS011;44389;51.578;5.456;2022-11-21T01:57:18;187.35;;;78.38;;
58621;SDS011;44389;51.578;5.456;2022-11-21T01:59:50;197.27;;;79.30;;
58621;SDS011;44389;51.578;5.456;2022-11-21T02:02:22;205.25;;;82.55;;
58621;SDS011;44389;51.578;5.456;2022-11-21T02:04:51;199.50;;;83.78;;
58621;SDS011;44389;51.578;5.456;2022-11-21T02:07:18;206.95;;;85.93;;
58621;SDS011;44389;51.578;5.456;2022-11-21T02:09:48;198.73;;;82.28;;
58621;SDS011;44389;51.578;5.456;2022-11-21T02:12:25;193.20;;;81.75;;
58621;SDS011;44389;51.578;5.456;2022-11-21T02:14:55;192.68;;;81.30;;
58621;SDS011;44389;51.578;5.456;2022-11-21T02:17:22;193.40;;;80.70;;
58621;SDS011;44389;51.578;5.456;2022-11-21T02:19:59;178.90;;;78.20;;
58621;SDS011;44389;51.578;5.456;2022-11-21T02:25:21;157.70;;;73.15;;
58621;SDS011;44389;51.578;5.456;2022-11-21T02:27:50;190.48;;;81.57;;
58621;SDS011;44389;51.578;5.456;2022-11-21T02:30:19;185.90;;;81.32;;
58621;SDS011;44389;51.578;5.456;2022-11-21T02:32:44;187.70;;;80.13;;
58621;SDS011;44389;51.578;5.456;2022-11-21T02:35:13;209.00;;;84.60;;
58621;SDS011;44389;51.578;5.456;2022-11-21T02:37:40;223.40;;;88.88;;
58621;SDS011;44389;51.578;5.456;2022-11-21T02:40:12;217.50;;;85.53;;
58621;SDS011;44389;51.578;5.456;2022-11-21T02:42:43;221.50;;;85.53;;
58621;SDS011;44389;51.578;5.456;2022-11-21T02:45:34;226.50;;;86.55;;
58621;SDS011;44389;51.578;5.456;2022-11-21T02:48:03;238.43;;;88.25;;
58621;SDS011;44389;51.578;5.456;2022-11-21T02:50:29;251.98;;;90.05;;
58621;SDS011;44389;51.578;5.456;2022-11-21T02:52:56;230.77;;;87.93;;
58621;SDS011;44389;51.578;5.456;2022-11-21T02:55:22;251.82;;;91.38;;
58621;SDS011;44389;51.578;5.456;2022-11-21T02:57:48;262.85;;;93.32;;
58621;SDS011;44389;51.578;5.456;2022-11-21T03:00:14;276.38;;;93.25;;
58621;SDS011;44389;51.578;5.456;2022-11-21T03:02:40;279.95;;;94.35;;
58621;SDS011;44389;51.578;5.456;2022-11-21T03:05:06;281.10;;;94.00;;
58621;SDS011;44389;51.578;5.456;2022-11-21T03:07:32;272.95;;;92.97;;
58621;SDS011;44389;51.578;5.456;2022-11-21T03:09:58;246.07;;;92.90;;
58621;SDS011;44389;51.578;5.456;2022-11-21T03:12:23;276.25;;;95.90;;
58621;SDS011;44389;51.578;5.456;2022-11-21T03:14:48;285.73;;;93.05;;
58621;SDS011;44389;51.578;5.456;2022-11-21T03:17:14;227.15;;;90.88;;
58621;SDS011;44389;51.578;5.456;2022-11-21T03:19:39;334.25;;;99.65;;
58621;SDS011;44389;51.578;5.456;2022-11-21T03:22:05;290.33;;;95.57;;
58621;SDS011;44389;51.578;5.456;2022-11-21T03:24:30;293.42;;;95.40;;
58621;SDS011;44389;51.578;5.456;2022-11-21T03:26:55;277.55;;;92.88;;
58621;SDS011;44389;51.578;5.456;2022-11-21T03:29:21;282.33;;;92.65;;
58621;SDS011;44389;51.578;5.456;2022-11-21T03:31:46;252.32;;;89.68;;
58621;SDS011;44389;51.578;5.456;2022-11-21T03:34:11;349.35;;;97.28;;
58621;SDS011;44389;51.578;5.456;2022-11-21T03:36:36;252.32;;;93.25;;
58621;SDS011;44389;51.578;5.456;2022-11-21T03:39:02;270.83;;;97.18;;
58621;SDS011;44389;51.578;5.456;2022-11-21T03:41:27;424.58;;;104.00;;
58621;SDS011;44389;51.578;5.456;2022-11-21T03:43:59;306.23;;;93.80;;
58621;SDS011;44389;51.578;5.456;2022-11-21T03:46:27;361.42;;;97.65;;
58621;SDS011;44389;51.578;5.456;2022-11-21T03:48:53;297.38;;;97.97;;
58621;SDS011;44389;51.578;5.456;2022-11-21T03:51:18;253.52;;;89.47;;
58621;SDS011;44389;51.578;5.456;2022-11-21T03:53:44;357.67;;;96.95;;
58621;SDS011;44389;51.578;5.456;2022-11-21T03:56:10;332.88;;;96.97;;
58621;SDS011;44389;51.578;5.456;2022-11-21T03:58:35;375.55;;;96.38;;
58621;SDS011;44389;51.578;5.456;2022-11-21T04:01:01;334.90;;;91.85;;
58621;SDS011;44389;51.578;5.456;2022-11-21T04:03:26;320.85;;;95.18;;
58621;SDS011;44389;51.578;5.456;2022-11-21T04:05:51;259.80;;;91.13;;
58621;SDS011;44389;51.578;5.456;2022-11-21T04:08:16;341.95;;;93.78;;
58621;SDS011;44389;51.578;5.456;2022-11-21T04:10:50;346.80;;;98.10;;
58621;SDS011;44389;51.578;5.456;2022-11-21T04:13:17;485.33;;;108.43;;
58621;SDS011;44389;51.578;5.456;2022-11-21T04:15:43;382.73;;;100.30;;
58621;SDS011;44389;51.578;5.456;2022-11-21T04:18:09;333.50;;;98.63;;
58621;SDS011;44389;51.578;5.456;2022-11-21T04:20:35;381.08;;;104.75;;
58621;SDS011;44389;51.578;5.456;2022-11-21T04:23:00;405.33;;;101.60;;
58621;SDS011;44389;51.578;5.456;2022-11-21T04:25:25;445.25;;;101.38;;
58621;SDS011;44389;51.578;5.456;2022-11-21T04:27:51;429.50;;;100.15;;
58621;SDS011;44389;51.578;5.456;2022-11-21T04:30:20;451.33;;;101.63;;
58621;SDS011;44389;51.578;5.456;2022-11-21T04:32:45;355.77;;;95.18;;
58621;SDS011;44389;51.578;5.456;2022-11-21T04:35:11;535.85;;;108.95;;
58621;SDS011;44389;51.578;5.456;2022-11-21T04:37:37;486.67;;;103.40;;
58621;SDS011;44389;51.578;5.456;2022-11-21T04:40:03;464.73;;;99.50;;
58621;SDS011;44389;51.578;5.456;2022-11-21T04:42:29;277.48;;;89.57;;
58621;SDS011;44389;51.578;5.456;2022-11-21T04:44:54;328.77;;;95.47;;
58621;SDS011;44389;51.578;5.456;2022-11-21T04:47:19;306.65;;;91.68;;
58621;SDS011;44389;51.578;5.456;2022-11-21T04:49:44;250.90;;;89.72;;
58621;SDS011;44389;51.578;5.456;2022-11-21T04:52:10;292.80;;;92.15;;
58621;SDS011;44389;51.578;5.456;2022-11-21T04:54:36;239.30;;;85.63;;
58621;SDS011;44389;51.578;5.456;2022-11-21T04:57:01;259.33;;;87.00;;
58621;SDS011;44389;51.578;5.456;2022-11-21T04:59:26;421.77;;;97.07;;
58621;SDS011;44389;51.578;5.456;2022-11-21T05:01:52;251.52;;;86.45;;
58621;SDS011;44389;51.578;5.456;2022-11-21T05:04:17;516.88;;;98.70;;
58621;SDS011;44389;51.578;5.456;2022-11-21T05:06:42;338.73;;;87.50;;
58621;SDS011;44389;51.578;5.456;2022-11-21T05:09:07;499.98;;;93.75;;
58621;SDS011;44389;51.578;5.456;2022-11-21T05:11:33;433.52;;;88.60;;
58621;SDS011;44389;51.578;5.456;2022-11-21T05:14:17;389.48;;;88.80;;
58621;SDS011;44389;51.578;5.456;2022-11-21T05:16:42;422.30;;;97.13;;
58621;SDS011;44389;51.578;5.456;2022-11-21T05:19:08;405.27;;;98.28;;
58621;SDS011;44389;51.578;5.456;2022-11-21T05:21:33;479.73;;;98.63;;
58621;SDS011;44389;51.578;5.456;2022-11-21T05:23:58;546.42;;;97.78;;
58621;SDS011;44389;51.578;5.456;2022-11-21T05:26:23;377.73;;;83.95;;
58621;SDS011;44389;51.578;5.456;2022-11-21T05:28:49;489.42;;;93.47;;
58621;SDS011;44389;51.578;5.456;2022-11-21T05:31:14;315.60;;;83.15;;
58621;SDS011;44389;51.578;5.456;2022-11-21T05:33:39;487.30;;;97.72;;
58621;SDS011;44389;51.578;5.456;2022-11-21T05:36:05;263.30;;;86.22;;
58621;SDS011;44389;51.578;5.456;2022-11-21T05:38:30;574.88;;;101.32;;
58621;SDS011;44389;51.578;5.456;2022-11-21T05:40:55;684.67;;;109.05;;
58621;SDS011;44389;51.578;5.456;2022-11-21T05:43:20;265.48;;;84.35;;
58621;SDS011;44389;51.578;5.456;2022-11-21T05:46:04;622.85;;;105.70;;
58621;SDS011;44389;51.578;5.456;2022-11-21T05:48:29;367.70;;;85.97;;
58621;SDS011;44389;51.578;5.456;2022-11-21T05:50:55;232.75;;;84.20;;
58621;SDS011;44389;51.578;5.456;2022-11-21T05:53:20;823.70;;;123.05;;
58621;SDS011;44389;51.578;5.456;2022-11-21T05:55:45;336.92;;;89.50;;
58621;SDS011;44389;51.578;5.456;2022-11-21T05:58:11;619.75;;;108.22;;
58621;SDS011;44389;51.578;5.456;2022-11-21T06:00:37;380.52;;;92.68;;
58621;SDS011;44389;51.578;5.456;2022-11-21T06:03:02;421.63;;;93.82;;
58621;SDS011;44389;51.578;5.456;2022-11-21T06:05:47;577.00;;;105.07;;
58621;SDS011;44389;51.578;5.456;2022-11-21T06:08:12;514.80;;;106.22;;
58621;SDS011;44389;51.578;5.456;2022-11-21T06:10:37;409.65;;;98.90;;
58621;SDS011;44389;51.578;5.456;2022-11-21T06:13:03;434.35;;;100.63;;
58621;SDS011;44389;51.578;5.456;2022-11-21T06:15:45;270.83;;;94.95;;
58621;SDS011;44389;51.578;5.456;2022-11-21T06:18:11;414.90;;;98.25;;
58621;SDS011;44389;51.578;5.456;2022-11-21T06:20:36;322.83;;;94.90;;
58621;SDS011;44389;51.578;5.456;2022-11-21T06:23:01;438.52;;;101.35;;
58621;SDS011;44389;51.578;5.456;2022-11-21T06:25:27;325.70;;;97.18;;
58621;SDS011;44389;51.578;5.456;2022-11-21T06:27:52;325.42;;;95.72;;
58621;SDS011;44389;51.578;5.456;2022-11-21T06:30:17;496.15;;;108.35;;
58621;SDS011;44389;51.578;5.456;2022-11-21T06:32:42;353.33;;;99.90;;
58621;SDS011;44389;51.578;5.456;2022-11-21T06:35:08;378.70;;;101.72;;
58621;SDS011;44389;51.578;5.456;2022-11-21T06:37:33;308.38;;;96.50;;
58621;SDS011;44389;51.578;5.456;2022-11-21T06:39:58;305.95;;;96.70;;
58621;SDS011;44389;51.578;5.456;2022-11-21T06:42:23;394.67;;;105.28;;
58621;SDS011;44389;51.578;5.456;2022-11-21T06:44:49;322.00;;;102.78;;
58621;SDS011;44389;51.578;5.456;2022-11-21T06:47:14;436.73;;;111.97;;
58621;SDS011;44389;51.578;5.456;2022-11-21T06:49:39;313.33;;;100.93;;
58621;SDS011;44389;51.578;5.456;2022-11-21T06:52:04;335.85;;;100.63;;
58621;SDS011;44389;51.578;5.456;2022-11-21T06:54:30;320.33;;;102.80;;
58621;SDS011;44389;51.578;5.456;2022-11-21T06:56:55;315.45;;;104.00;;
58621;SDS011;44389;51.578;5.456;2022-11-21T06:59:22;354.85;;;110.75;;
58621;SDS011;44389;51.578;5.456;2022-11-21T07:01:48;311.45;;;103.25;;
58621;SDS011;44389;51.578;5.456;2022-11-21T07:04:13;314.38;;;101.80;;
58621;SDS011;44389;51.578;5.456;2022-11-21T07:06:38;246.23;;;94.82;;
58621;SDS011;44389;51.578;5.456;2022-11-21T07:09:04;303.95;;;99.40;;
58621;SDS011;44389;51.578;5.456;2022-11-21T07:11:29;291.65;;;97.57;;
58621;SDS011;44389;51.578;5.456;2022-11-21T07:13:54;297.98;;;102.25;;
58621;SDS011;44389;51.578;5.456;2022-11-21T07:16:20;281.38;;;103.85;;
58621;SDS011;44389;51.578;5.456;2022-11-21T07:18:46;278.05;;;98.45;;
58621;SDS011;44389;51.578;5.456;2022-11-21T07:21:11;283.67;;;94.78;;
58621;SDS011;44389;51.578;5.456;2022-11-21T07:23:36;287.88;;;91.03;;
58621;SDS011;44389;51.578;5.456;2022-11-21T07:26:03;326.40;;;97.18;;
58621;SDS011;44389;51.578;5.456;2022-11-21T07:28:33;270.77;;;93.28;;
58621;SDS011;44389;51.578;5.456;2022-11-21T07:30:59;268.98;;;88.10;;
58621;SDS011;44389;51.578;5.456;2022-11-21T07:33:25;304.73;;;121.20;;
58621;SDS011;44389;51.578;5.456;2022-11-21T07:35:51;269.30;;;100.95;;
58621;SDS011;44389;51.578;5.456;2022-11-21T07:38:16;284.52;;;98.88;;
58621;SDS011;44389;51.578;5.456;2022-11-21T07:40:42;273.95;;;98.95;;
58621;SDS011;44389;51.578;5.456;2022-11-21T07:43:08;241.30;;;92.28;;
58621;SDS011;44389;51.578;5.456;2022-11-21T07:45:34;290.13;;;120.18;;
58621;SDS011;44389;51.578;5.456;2022-11-21T07:48:00;263.08;;;105.68;;
58621;SDS011;44389;51.578;5.456;2022-11-21T07:50:26;251.93;;;98.68;;
58621;SDS011;44389;51.578;5.456;2022-11-21T07:52:56;230.60;;;87.68;;
58621;SDS011;44389;51.578;5.456;2022-11-21T07:55:23;220.82;;;81.40;;
58621;SDS011;44389;51.578;5.456;2022-11-21T07:57:56;221.43;;;86.38;;
58621;SDS011;44389;51.578;5.456;2022-11-21T08:00:22;240.90;;;105.00;;
58621;SDS011;44389;51.578;5.456;2022-11-21T08:02:47;341.17;;;180.98;;
58621;SDS011;44389;51.578;5.456;2022-11-21T08:05:13;255.07;;;113.38;;
58621;SDS011;44389;51.578;5.456;2022-11-21T08:07:38;193.63;;;79.88;;
58621;SDS011;44389;51.578;5.456;2022-11-21T08:10:03;214.10;;;80.90;;
58621;SDS011;44389;51.578;5.456;2022-11-21T08:12:30;184.75;;;70.88;;
58621;SDS011;44389;51.578;5.456;2022-11-21T08:14:56;170.27;;;65.32;;
58621;SDS011;44389;51.578;5.456;2022-11-21T08:17:24;176.50;;;66.80;;
58621;SDS011;44389;51.578;5.456;2022-11-21T08:19:50;162.40;;;63.50;;
58621;SDS011;44389;51.578;5.456;2022-11-21T08:22:15;146.52;;;58.70;;
58621;SDS011;44389;51.578;5.456;2022-11-21T08:24:40;141.77;;;58.15;;
58621;SDS011;44389;51.578;5.456;2022-11-21T08:27:06;137.93;;;55.92;;
58621;SDS011;44389;51.578;5.456;2022-11-21T08:29:31;133.85;;;53.90;;
58621;SDS011;44389;51.578;5.456;2022-11-21T08:31:56;128.93;;;54.53;;
58621;SDS011;44389;51.578;5.456;2022-11-21T08:34:22;117.00;;;50.33;;
58621;SDS011;44389;51.578;5.456;2022-11-21T08:36:47;122.95;;;49.35;;
58621;SDS011;44389;51.578;5.456;2022-11-21T08:39:12;114.55;;;48.08;;
58621;SDS011;44389;51.578;5.456;2022-11-21T08:41:37;102.78;;;45.15;;
58621;SDS011;44389;51.578;5.456;2022-11-21T08:44:21;96.68;;;43.67;;
58621;SDS011;44389;51.578;5.456;2022-11-21T08:46:47;95.63;;;40.65;;
58621;SDS011;44389;51.578;5.456;2022-11-21T08:49:12;97.90;;;42.10;;
58621;SDS011;44389;51.578;5.456;2022-11-21T08:51:37;98.35;;;40.63;;
58621;SDS011;44389;51.578;5.456;2022-11-21T08:54:02;94.60;;;39.60;;
58621;SDS011;44389;51.578;5.456;2022-11-21T08:56:28;88.32;;;37.42;;
58621;SDS011;44389;51.578;5.456;2022-11-21T08:58:53;91.38;;;37.78;;
58621;SDS011;44389;51.578;5.456;2022-11-21T09:01:20;93.90;;;37.15;;
58621;SDS011;44389;51.578;5.456;2022-11-21T09:03:45;87.10;;;36.13;;
58621;SDS011;44389;51.578;5.456;2022-11-21T09:06:10;80.07;;;36.38;;
58621;SDS011;44389;51.578;5.456;2022-11-21T09:08:37;84.82;;;34.80;;
58621;SDS011;44389;51.578;5.456;2022-11-21T09:11:03;90.72;;;34.22;;
58621;SDS011;44389;51.578;5.456;2022-11-21T09:13:30;70.93;;;32.67;;
58621;SDS011;44389;51.578;5.456;2022-11-21T09:15:58;78.82;;;31.83;;
58621;SDS011;44389;51.578;5.456;2022-11-21T09:18:42;69.23;;;29.80;;
58621;SDS011;44389;51.578;5.456;2022-11-21T09:21:08;79.63;;;30.83;;
58621;SDS011;44389;51.578;5.456;2022-11-21T09:23:33;67.40;;;28.92;;
58621;SDS011;44389;51.578;5.456;2022-11-21T09:25:59;67.75;;;28.27;;
58621;SDS011;44389;51.578;5.456;2022-11-21T09:28:25;60.35;;;26.58;;
58621;SDS011;44389;51.578;5.456;2022-11-21T09:30:50;53.38;;;25.73;;
58621;SDS011;44389;51.578;5.456;2022-11-21T09:33:15;62.17;;;24.42;;
58621;SDS011;44389;51.578;5.456;2022-11-21T09:35:41;67.45;;;27.23;;
58621;SDS011;44389;51.578;5.456;2022-11-21T09:38:07;56.88;;;25.35;;
58621;SDS011;44389;51.578;5.456;2022-11-21T09:40:33;57.42;;;21.75;;
58621;SDS011;44389;51.578;5.456;2022-11-21T09:43:21;58.50;;;24.45;;
58621;SDS011;44389;51.578;5.456;2022-11-21T09:46:01;47.95;;;18.27;;
58621;SDS011;44389;51.578;5.456;2022-11-21T09:48:32;41.88;;;16.70;;
58621;SDS011;44389;51.578;5.456;2022-11-21T09:51:06;53.55;;;22.85;;
58621;SDS011;44389;51.578;5.456;2022-11-21T09:53:36;52.08;;;25.17;;
58621;SDS011;44389;51.578;5.456;2022-11-21T09:56:10;65.32;;;32.50;;
58621;SDS011;44389;51.578;5.456;2022-11-21T09:58:43;37.13;;;16.38;;
58621;SDS011;44389;51.578;5.456;2022-11-21T10:01:13;35.20;;;13.02;;
58621;SDS011;44389;51.578;5.456;2022-11-21T10:03:41;27.63;;;13.60;;
58621;SDS011;44389;51.578;5.456;2022-11-21T10:06:20;34.53;;;14.20;;
58621;SDS011;44389;51.578;5.456;2022-11-21T10:11:34;39.22;;;14.45;;
58621;SDS011;44389;51.578;5.456;2022-11-21T10:17:09;30.48;;;12.88;;
58621;SDS011;44389;51.578;5.456;2022-11-21T10:19:59;30.50;;;13.75;;
58621;SDS011;44389;51.578;5.456;2022-11-21T10:25:24;29.08;;;11.88;;
58621;SDS011;44389;51.578;5.456;2022-11-21T10:28:00;36.03;;;11.75;;
58621;SDS011;44389;51.578;5.456;2022-11-21T10:30:27;29.80;;;11.50;;
58621;SDS011;44389;51.578;5.456;2022-11-21T10:33:03;28.20;;;10.85;;
58621;SDS011;44389;51.578;5.456;2022-11-21T10:35:38;35.92;;;12.45;;
58621;SDS011;44389;51.578;5.456;2022-11-21T10:38:13;34.72;;;11.80;;
58621;SDS011;44389;51.578;5.456;2022-11-21T10:40:47;33.05;;;12.02;;
58621;SDS011;44389;51.578;5.456;2022-11-21T10:43:23;26.10;;;10.13;;
58621;SDS011;44389;51.578;5.456;2022-11-21T10:46:21;33.20;;;10.85;;
58621;SDS011;44389;51.578;5.456;2022-11-21T10:48:58;32.30;;;11.30;;
58621;SDS011;44389;51.578;5.456;2022-11-21T10:51:35;31.23;;;11.32;;
58621;SDS011;44389;51.578;5.456;2022-11-21T10:54:10;32.58;;;11.20;;
58621;SDS011;44389;51.578;5.456;2022-11-21T10:57:04;26.00;;;10.40;;
58621;SDS011;44389;51.578;5.456;2022-11-21T10:59:36;39.97;;;10.50;;
58621;SDS011;44389;51.578;5.456;2022-11-21T11:02:09;28.88;;;10.55;;
58621;SDS011;44389;51.578;5.456;2022-11-21T11:04:47;30.77;;;10.80;;
58621;SDS011;44389;51.578;5.456;2022-11-21T11:07:18;33.22;;;9.85;;
58621;SDS011;44389;51.578;5.456;2022-11-21T11:09:44;23.63;;;8.95;;
58621;SDS011;44389;51.578;5.456;2022-11-21T11:14:42;32.85;;;9.93;;
58621;SDS011;44389;51.578;5.456;2022-11-21T11:17:25;30.65;;;8.75;;
58621;SDS011;44389;51.578;5.456;2022-11-21T11:20:39;29.23;;;8.82;;
58621;SDS011;44389;51.578;5.456;2022-11-21T11:22:57;28.33;;;8.33;;
58621;SDS011;44389;51.578;5.456;2022-11-21T11:25:22;29.75;;;8.63;;
58621;SDS011;44389;51.578;5.456;2022-11-21T11:27:48;26.02;;;8.55;;
58621;SDS011;44389;51.578;5.456;2022-11-21T11:30:14;31.80;;;8.85;;
58621;SDS011;44389;51.578;5.456;2022-11-21T11:32:41;24.35;;;8.32;;
58621;SDS011;44389;51.578;5.456;2022-11-21T11:37:41;32.20;;;9.80;;
58621;SDS011;44389;51.578;5.456;2022-11-21T11:46:02;27.10;;;8.15;;
58621;SDS011;44389;51.578;5.456;2022-11-21T11:49:49;34.40;;;8.90;;
58621;SDS011;44389;51.578;5.456;2022-11-21T11:52:30;27.35;;;7.80;;
58621;SDS011;44389;51.578;5.456;2022-11-21T11:55:01;27.30;;;8.20;;
58621;SDS011;44389;51.578;5.456;2022-11-21T11:57:29;29.08;;;9.25;;
58621;SDS011;44389;51.578;5.456;2022-11-21T12:00:04;34.60;;;10.27;;
58621;SDS011;44389;51.578;5.456;2022-11-21T12:02:50;32.70;;;11.68;;
58621;SDS011;44389;51.578;5.456;2022-11-21T12:05:25;63.88;;;25.38;;
58621;SDS011;44389;51.578;5.456;2022-11-21T12:08:00;35.92;;;11.88;;
58621;SDS011;44389;51.578;5.456;2022-11-21T12:10:33;101.97;;;43.50;;
58621;SDS011;44389;51.578;5.456;2022-11-21T12:13:25;104.53;;;49.25;;
58621;SDS011;44389;51.578;5.456;2022-11-21T12:15:52;39.70;;;18.02;;
58621;SDS011;44389;51.578;5.456;2022-11-21T12:18:32;32.75;;;11.98;;
58621;SDS011;44389;51.578;5.456;2022-11-21T12:21:11;44.85;;;19.35;;
58621;SDS011;44389;51.578;5.456;2022-11-21T12:34:22;34.35;;;10.82;;
58621;SDS011;44389;51.578;5.456;2022-11-21T12:37:31;31.92;;;8.73;;
58621;SDS011;44389;51.578;5.456;2022-11-21T12:42:39;22.20;;;8.90;;
58621;SDS011;44389;51.578;5.456;2022-11-21T12:45:25;26.42;;;10.82;;
58621;SDS011;44389;51.578;5.456;2022-11-21T12:54:17;22.27;;;7.20;;
58621;SDS011;44389;51.578;5.456;2022-11-21T12:57:09;26.30;;;6.78;;
58621;SDS011;44389;51.578;5.456;2022-11-21T13:02:46;31.55;;;6.80;;
58621;SDS011;44389;51.578;5.456;2022-11-21T13:05:26;20.85;;;6.35;;
58621;SDS011;44389;51.578;5.456;2022-11-21T13:07:56;22.73;;;6.45;;
58621;SDS011;44389;51.578;5.456;2022-11-21T13:10:25;23.92;;;7.13;;
58621;SDS011;44389;51.578;5.456;2022-11-21T13:12:59;32.58;;;9.10;;
58621;SDS011;44389;51.578;5.456;2022-11-21T13:18:18;30.10;;;9.40;;
58621;SDS011;44389;51.578;5.456;2022-11-21T13:20:49;40.67;;;13.35;;
58621;SDS011;44389;51.578;5.456;2022-11-21T13:28:48;31.48;;;9.68;;
58621;SDS011;44389;51.578;5.456;2022-11-21T13:31:27;29.90;;;8.30;;
58621;SDS011;44389;51.578;5.456;2022-11-21T13:33:54;29.13;;;7.38;;
58621;SDS011;44389;51.578;5.456;2022-11-21T13:41:52;25.47;;;7.47;;
58621;SDS011;44389;51.578;5.456;2022-11-21T13:44:41;30.13;;;7.80;;
58621;SDS011;44389;51.578;5.456;2022-11-21T13:49:34;34.72;;;8.45;;
58621;SDS011;44389;51.578;5.456;2022-11-21T13:52:19;26.55;;;8.18;;
58621;SDS011;44389;51.578;5.456;2022-11-21T13:54:56;27.77;;;7.43;;
58621;SDS011;44389;51.578;5.456;2022-11-21T13:57:48;27.35;;;7.55;;
58621;SDS011;44389;51.578;5.456;2022-11-21T14:03:48;21.95;;;7.15;;
58621;SDS011;44389;51.578;5.456;2022-11-21T14:06:33;28.80;;;8.77;;
58621;SDS011;44389;51.578;5.456;2022-11-21T14:09:15;27.70;;;8.13;;
58621;SDS011;44389;51.578;5.456;2022-11-21T14:11:49;25.02;;;7.97;;
58621;SDS011;44389;51.578;5.456;2022-11-21T14:17:03;23.70;;;8.75;;
58621;SDS011;44389;51.578;5.456;2022-11-21T14:19:44;26.23;;;8.82;;
58621;SDS011;44389;51.578;5.456;2022-11-21T14:22:24;30.70;;;8.80;;
58621;SDS011;44389;51.578;5.456;2022-11-21T14:24:51;29.23;;;9.07;;
58621;SDS011;44389;51.578;5.456;2022-11-21T14:27:23;38.27;;;9.50;;
58621;SDS011;44389;51.578;5.456;2022-11-21T14:29:52;31.38;;;9.25;;
58621;SDS011;44389;51.578;5.456;2022-11-21T14:32:24;30.02;;;10.68;;
58621;SDS011;44389;51.578;5.456;2022-11-21T14:34:50;39.70;;;9.63;;
58621;SDS011;44389;51.578;5.456;2022-11-21T14:37:15;34.15;;;10.63;;
58621;SDS011;44389;51.578;5.456;2022-11-21T14:39:41;27.88;;;10.07;;
58621;SDS011;44389;51.578;5.456;2022-11-21T14:42:11;32.40;;;10.05;;
58621;SDS011;44389;51.578;5.456;2022-11-21T14:44:38;33.95;;;11.48;;
58621;SDS011;44389;51.578;5.456;2022-11-21T14:47:07;28.80;;;10.57;;
58621;SDS011;44389;51.578;5.456;2022-11-21T14:49:59;27.45;;;10.88;;
58621;SDS011;44389;51.578;5.456;2022-11-21T14:52:29;34.95;;;11.75;;
58621;SDS011;44389;51.578;5.456;2022-11-21T14:54:57;30.63;;;10.82;;
58621;SDS011;44389;51.578;5.456;2022-11-21T14:57:35;36.83;;;11.43;;
58621;SDS011;44389;51.578;5.456;2022-11-21T15:00:05;35.47;;;12.13;;
58621;SDS011;44389;51.578;5.456;2022-11-21T15:02:31;36.15;;;12.70;;
58621;SDS011;44389;51.578;5.456;2022-11-21T15:05:02;32.72;;;12.30;;
58621;SDS011;44389;51.578;5.456;2022-11-21T15:07:34;36.75;;;13.57;;
58621;SDS011;44389;51.578;5.456;2022-11-21T15:10:05;38.75;;;12.88;;
58621;SDS011;44389;51.578;5.456;2022-11-21T15:12:42;42.00;;;12.77;;
58621;SDS011;44389;51.578;5.456;2022-11-21T15:15:23;35.35;;;12.00;;
58621;SDS011;44389;51.578;5.456;2022-11-21T15:17:59;30.02;;;11.27;;
58621;SDS011;44389;51.578;5.456;2022-11-21T15:22:56;33.88;;;12.48;;
58621;SDS011;44389;51.578;5.456;2022-11-21T15:25:30;28.80;;;10.80;;
58621;SDS011;44389;51.578;5.456;2022-11-21T15:28:07;33.00;;;11.32;;
58621;SDS011;44389;51.578;5.456;2022-11-21T15:30:38;33.05;;;10.90;;
58621;SDS011;44389;51.578;5.456;2022-11-21T15:35:43;30.58;;;10.50;;
58621;SDS011;44389;51.578;5.456;2022-11-21T15:38:15;30.17;;;9.57;;
58621;SDS011;44389;51.578;5.456;2022-11-21T15:46:08;30.48;;;9.00;;
58621;SDS011;44389;51.578;5.456;2022-11-21T15:48:37;30.47;;;8.17;;